Aeroporto :
LOGIN :

Iscrizione | Disclaimer

   EN    FR    IT 

 










Sommario :    VFR   VFR Marginale   IFR   IFR Intensivo   IFR Molto Intensivo
Visibilità : 
Base nubi : 
>= 8 km
>= 3000ft
5 / 8 km
1000 / 3000 ft
1500m / 5 km
500 / 1000 ft
800 / 1500m
200 / 500 ft
< 800m
< 200 ft
Simboli :   Temporali  Nebbia  Neve Forte  Precipitazioni Forti  Vento > 20 kt
SIGMETs :   Varie  Temporali  Ghiacco  Turbolenza  Onda orograficha  Ceneri Vulcaniche






- Altitudine del aeroporto : 39 ft
- Codice IATA : ANR


EBAW - Anvers / Antwerpen Deurne

ULTIMO METAR :
  • 250550Z 32006KT CAVOK 15/10 Q1034 NOSIG

METARs OBSOLETI :
  • 250520Z 33004KT 300V010 CAVOK 15/11 Q1034 NOSIG
  • 250450Z AUTO 30004KT 9000 // NCD 14/11 Q1034
  • 250420Z AUTO 30004KT 8000 // NCD 13/11 Q1033
  • 250350Z AUTO 29003KT 9000 // NCD 13/11 Q1033
  • 250320Z AUTO 28005KT 9000 // NCD 13/11 Q1033

TAF TAF EBAW
Valido dal 25 a 06 ore il 25 a 15 ore UTC


250510Z 2506/2515 33007KT 9999 FEW018 SCT040



MetMap, La meteo Aeronautica in un colpo d'occhio ! - Copyright ORBIFLY Dicembre 2007 - Disclaimer

ORBIFLY MET'MAP TEAM :

Programmazione e sviluppo : Alexandra Zaïnal
Concezione : Baudouin d'Aumeries
Aiuto per la programmazione : Marc-Olivier Méhu
Supporto tecnico e logistico : Manuel Goepfert
Aiuto per la traduzione : Arnaldo La Scala

Contatto : metmap@orbifly.com




FONTI E CREDITI :

   NOAA